Terminal Aerodrome Forecast
Issued by NWS

Home | Current Version | Previous Version | Text Only | Print | Product List | Glossary On
Versions: 1 2 3 4 5 6 7 8 9 10 11 12 13 14 15 16
000
FTUS41 KGYX 231700
TAFPSM
TAF
KPSM 231739Z 2318/2418 21009G18KT P6SM SCT040 SCT100
     FM240000 22009KT 5SM -TSRA BKN050CB BKN100
      TEMPO 2400/2402 1SM +TSRA BKN025CB OVC040
     FM240500 29005KT P6SM SCT040 BKN100
     FM240800 32005KT 4SM BR SCT020 BKN100
     FM241200 34010KT P6SM SCT045 SCT120=

USA.gov is the U.S. government's official web portal to all federal, state and local government web resources and services.